Time;durP1;ratioP1;P1;durP2;ratioP2;P2;SDS_P1;SDS_P2;PMS_P1;PMS_P2;Temp;Humidity;BMP_temperature;BMP_pressure;BME280_temperature;BME280_humidity;BME280_pressure;Samples;Min_cycle;Max_cycle;Signal;HPM_P1;HPM_P2
2022/11/25 00:02:14;;;;;;;;;;;19.40;49.80;;;;;;5044774;28;20055;-71
2022/11/25 00:04:39;;;;;;;;;;;19.30;49.70;;;;;;5044387;28;19923;-71
2022/11/25 00:07:05;;;;;;;;;;;19.30;49.70;;;;;;5028778;28;19925;-71
2022/11/25 00:09:30;;;;;;;;;;;19.30;49.90;;;;;;5008419;28;19966;-71
2022/11/25 00:11:56;;;;;;;;;;;19.20;49.70;;;;;;5046498;28;20373;-72
2022/11/25 00:14:21;;;;;;;;;;;19.20;49.70;;;;;;5030311;28;19913;-70
2022/11/25 00:16:47;;;;;;;;;;;19.30;49.90;;;;;;5043023;28;19912;-71
2022/11/25 00:19:12;;;;;;;;;;;19.30;49.80;;;;;;5044310;28;19982;-71
2022/11/25 00:21:38;;;;;;;;;;;19.20;49.60;;;;;;5045337;28;19916;-71
2022/11/25 00:24:04;;;;;;;;;;;19.20;49.40;;;;;;5045884;28;19923;-71
2022/11/25 00:26:31;;;;;;;;;;;19.20;49.50;;;;;;5045019;28;19918;-70
2022/11/25 00:28:57;;;;;;;;;;;19.20;49.20;;;;;;5028122;28;20403;-71
2022/11/25 00:31:23;;;;;;;;;;;19.20;49.30;;;;;;5028451;28;20323;-71
2022/11/25 00:33:49;;;;;;;;;;;19.20;49.20;;;;;;5028469;28;19913;-72
2022/11/25 00:36:22;;;;;;;;;;;19.20;49.20;;;;;;5025131;28;19921;-71
2022/11/25 00:38:51;;;;;;;;;;;19.20;49.40;;;;;;5028029;28;19921;-70
2022/11/25 00:46:45;;;;;;;;;;;19.30;48.70;;;;;;5043771;28;19928;-71
2022/11/25 00:49:12;;;;;;;;;;;19.30;48.70;;;;;;5045124;28;21162;-71
2022/11/25 00:51:37;;;;;;;;;;;19.30;48.60;;;;;;5041393;28;19921;-72
2022/11/25 00:54:03;;;;;;;;;;;19.30;48.80;;;;;;5043335;28;19959;-71
2022/11/25 00:56:29;;;;;;;;;;;19.30;48.50;;;;;;5025373;28;19913;-71
2022/11/25 00:58:54;;;;;;;;;;;19.30;48.40;;;;;;5047913;28;19921;-70
2022/11/25 01:01:20;;;;;;;;;;;19.30;48.20;;;;;;5049765;28;20467;-70
2022/11/25 01:03:47;;;;;;;;;;;19.30;48.40;;;;;;5031442;28;19917;-71
2022/11/25 01:06:13;;;;;;;;;;;19.40;48.20;;;;;;5048461;28;19955;-71
2022/11/25 01:08:38;;;;;;;;;;;19.40;48.30;;;;;;5031669;28;19967;-71
2022/11/25 01:11:04;;;;;;;;;;;19.30;48.20;;;;;;5033025;28;20421;-72
2022/11/25 01:13:30;;;;;;;;;;;19.30;48.10;;;;;;5042539;28;19917;-71
2022/11/25 01:15:55;;;;;;;;;;;19.30;48.20;;;;;;5032713;28;19913;-71
2022/11/25 01:18:21;;;;;;;;;;;19.30;48.00;;;;;;5032197;28;20852;-70
2022/11/25 01:20:47;;;;;;;;;;;19.30;48.00;;;;;;5047311;28;19913;-71
2022/11/25 01:23:14;;;;;;;;;;;19.30;48.00;;;;;;5032441;28;20003;-71
2022/11/25 01:25:40;;;;;;;;;;;19.30;48.20;;;;;;5032233;28;20364;-70
2022/11/25 01:28:05;;;;;;;;;;;19.30;48.20;;;;;;5047103;28;19967;-71
2022/11/25 01:30:31;;;;;;;;;;;19.30;48.10;;;;;;5044621;28;20404;-71
2022/11/25 01:32:56;;;;;;;;;;;19.30;48.10;;;;;;5045857;28;19975;-71
2022/11/25 01:35:22;;;;;;;;;;;19.20;47.90;;;;;;5025598;28;19959;-71
2022/11/25 01:37:47;;;;;;;;;;;19.30;48.00;;;;;;5048238;28;19921;-71
2022/11/25 01:40:13;;;;;;;;;;;19.30;48.00;;;;;;5048073;28;19913;-71
2022/11/25 01:42:42;;;;;;;;;;;19.30;48.30;;;;;;5046473;28;19924;-70
2022/11/25 01:45:24;;;;;;;;;;;19.30;48.00;;;;;;5029565;28;19922;-71
2022/11/25 01:47:50;;;;;;;;;;;19.30;48.20;;;;;;5047197;28;20366;-71
2022/11/25 01:50:16;;;;;;;;;;;19.20;47.90;;;;;;5046505;28;19917;-71
2022/11/25 01:52:43;;;;;;;;;;;19.20;48.00;;;;;;5049831;28;20358;-72
2022/11/25 01:55:09;;;;;;;;;;;19.20;48.00;;;;;;5031046;28;19912;-72
2022/11/25 01:57:39;;;;;;;;;;;19.20;47.90;;;;;;5031246;28;19921;-72
2022/11/25 02:00:06;;;;;;;;;;;19.20;47.90;;;;;;5030986;28;19924;-71
2022/11/25 02:02:32;;;;;;;;;;;19.10;47.80;;;;;;5048111;28;19917;-72
2022/11/25 02:04:57;;;;;;;;;;;19.20;47.90;;;;;;5031914;28;19920;-71
2022/11/25 02:07:26;;;;;;;;;;;19.10;47.90;;;;;;5017998;28;19920;-71
2022/11/25 02:09:51;;;;;;;;;;;19.00;48.50;;;;;;5031014;28;20416;-72
2022/11/25 02:12:17;;;;;;;;;;;18.90;48.80;;;;;;5013208;28;20004;-71
2022/11/25 02:14:43;;;;;;;;;;;18.80;49.10;;;;;;5047533;28;19961;-72
2022/11/25 02:17:08;;;;;;;;;;;18.80;48.70;;;;;;5047441;28;19920;-72
2022/11/25 02:19:40;;;;;;;;;;;18.90;48.80;;;;;;5030007;28;19921;-72
2022/11/25 02:22:06;;;;;;;;;;;19.00;48.70;;;;;;5032172;28;19917;-72
2022/11/25 02:24:33;;;;;;;;;;;19.20;48.50;;;;;;5045858;28;19921;-72
2022/11/25 02:26:59;;;;;;;;;;;19.30;48.20;;;;;;5031027;28;20385;-71
2022/11/25 02:29:24;;;;;;;;;;;19.60;47.80;;;;;;5047266;28;19932;-71
2022/11/25 02:31:50;;;;;;;;;;;19.80;47.40;;;;;;5027856;28;19960;-72
2022/11/25 02:34:15;;;;;;;;;;;20.00;47.00;;;;;;5031958;28;19913;-71
2022/11/25 02:36:41;;;;;;;;;;;20.20;46.60;;;;;;5046856;28;20312;-72
2022/11/25 02:39:06;;;;;;;;;;;20.40;46.20;;;;;;5029906;28;19917;-72
2022/11/25 02:41:32;;;;;;;;;;;20.50;45.80;;;;;;5031308;28;19919;-72
2022/11/25 02:43:58;;;;;;;;;;;20.60;45.50;;;;;;5031522;28;19916;-72
2022/11/25 02:46:24;;;;;;;;;;;20.70;45.20;;;;;;5032380;28;19923;-71
2022/11/25 02:48:50;;;;;;;;;;;20.80;45.10;;;;;;5041980;28;19971;-72
2022/11/25 02:51:16;;;;;;;;;;;20.90;45.10;;;;;;5027004;28;19921;-72
2022/11/25 02:53:41;;;;;;;;;;;20.90;44.80;;;;;;5044423;28;19963;-71
2022/11/25 02:56:07;;;;;;;;;;;20.90;44.70;;;;;;5032942;28;19913;-73
2022/11/25 02:58:32;;;;;;;;;;;21.00;44.70;;;;;;5045437;28;19913;-72
2022/11/25 03:00:58;;;;;;;;;;;21.00;44.70;;;;;;5046358;28;19921;-71
2022/11/25 03:03:23;;;;;;;;;;;20.90;44.70;;;;;;5031431;28;19974;-71
2022/11/25 03:05:48;;;;;;;;;;;20.90;44.80;;;;;;5044086;28;19979;-71
2022/11/25 03:08:14;;;;;;;;;;;20.80;44.90;;;;;;5046394;28;19917;-71
2022/11/25 03:10:40;;;;;;;;;;;20.70;45.00;;;;;;5045645;28;20015;-72
2022/11/25 03:13:05;;;;;;;;;;;20.70;45.00;;;;;;5023474;28;19921;-72
2022/11/25 03:15:31;;;;;;;;;;;20.60;45.10;;;;;;5029919;28;20008;-71
2022/11/25 03:17:56;;;;;;;;;;;20.50;45.30;;;;;;5028503;28;19959;-72
2022/11/25 03:20:22;;;;;;;;;;;20.40;45.40;;;;;;5028558;28;20356;-72
2022/11/25 03:22:47;;;;;;;;;;;20.40;45.60;;;;;;5044238;28;20007;-72
2022/11/25 03:25:13;;;;;;;;;;;20.30;45.80;;;;;;5044754;28;19960;-71
2022/11/25 03:27:38;;;;;;;;;;;20.20;45.80;;;;;;5027705;28;19917;-72
2022/11/25 03:30:05;;;;;;;;;;;20.20;45.90;;;;;;5025060;28;19924;-72
2022/11/25 03:32:30;;;;;;;;;;;20.20;46.00;;;;;;5024154;28;19913;-72
2022/11/25 03:34:55;;;;;;;;;;;20.20;46.00;;;;;;5028990;28;19913;-70
2022/11/25 03:37:21;;;;;;;;;;;20.10;46.00;;;;;;5045377;28;19917;-72
2022/11/25 03:39:46;;;;;;;;;;;20.10;46.10;;;;;;5026734;28;19917;-72
2022/11/25 03:42:12;;;;;;;;;;;20.10;46.10;;;;;;5046384;28;19957;-72
2022/11/25 03:44:38;;;;;;;;;;;20.10;46.10;;;;;;5014527;28;19909;-72
2022/11/25 03:47:03;;;;;;;;;;;20.10;46.00;;;;;;5045489;28;20304;-72
2022/11/25 03:49:29;;;;;;;;;;;20.20;46.00;;;;;;5045364;28;20043;-72
2022/11/25 03:51:54;;;;;;;;;;;20.20;45.80;;;;;;5029224;28;19920;-71
2022/11/25 03:54:20;;;;;;;;;;;20.30;45.80;;;;;;5021852;28;19914;-72
2022/11/25 03:56:45;;;;;;;;;;;20.30;45.70;;;;;;5046009;28;19908;-72
2022/11/25 03:59:11;;;;;;;;;;;20.40;45.70;;;;;;5044793;28;19917;-72
2022/11/25 04:01:36;;;;;;;;;;;20.40;45.50;;;;;;5019303;28;19912;-72
2022/11/25 04:04:02;;;;;;;;;;;20.40;45.50;;;;;;5044194;28;19917;-71
2022/11/25 04:06:27;;;;;;;;;;;20.40;46.10;;;;;;5013043;28;19913;-71
2022/11/25 04:08:53;;;;;;;;;;;20.40;45.40;;;;;;5044259;28;19909;-71
2022/11/25 04:11:18;;;;;;;;;;;20.40;45.30;;;;;;5029662;28;20249;-71
2022/11/25 04:13:44;;;;;;;;;;;20.40;45.30;;;;;;5045052;28;20346;-72
2022/11/25 04:16:15;;;;;;;;;;;20.40;45.30;;;;;;5046006;28;20346;-72
2022/11/25 04:18:40;;;;;;;;;;;20.40;45.30;;;;;;5046113;28;19921;-71
2022/11/25 04:21:06;;;;;;;;;;;20.40;45.30;;;;;;5045191;28;19963;-72
2022/11/25 04:23:31;;;;;;;;;;;20.40;45.30;;;;;;5044250;28;19978;-72
2022/11/25 04:25:56;;;;;;;;;;;20.40;45.40;;;;;;5030567;28;19908;-72
2022/11/25 04:28:22;;;;;;;;;;;20.40;45.40;;;;;;5039988;28;20004;-72
2022/11/25 04:30:47;;;;;;;;;;;20.40;45.40;;;;;;5046283;28;19913;-72
2022/11/25 04:33:13;;;;;;;;;;;20.40;45.50;;;;;;5044775;28;19909;-72
2022/11/25 04:35:38;;;;;;;;;;;20.30;45.40;;;;;;5046672;28;19921;-70
2022/11/25 04:38:03;;;;;;;;;;;20.30;45.40;;;;;;5044101;28;19928;-71
2022/11/25 04:40:29;;;;;;;;;;;20.30;45.40;;;;;;5042982;28;19952;-71
2022/11/25 04:42:54;;;;;;;;;;;20.30;45.50;;;;;;5044340;28;19932;-72
2022/11/25 04:45:20;;;;;;;;;;;20.30;45.50;;;;;;5045204;28;19913;-72
2022/11/25 04:47:45;;;;;;;;;;;20.30;45.40;;;;;;5026427;28;20739;-71
2022/11/25 04:50:12;;;;;;;;;;;20.30;45.40;;;;;;5029392;28;20337;-72
2022/11/25 04:52:37;;;;;;;;;;;20.30;45.40;;;;;;5045003;28;19913;-71
2022/11/25 04:55:04;;;;;;;;;;;20.30;45.30;;;;;;5028266;28;19924;-72
2022/11/25 04:57:29;;;;;;;;;;;20.40;45.30;;;;;;5027890;28;19916;-72
2022/11/25 04:59:55;;;;;;;;;;;20.30;45.30;;;;;;5045148;28;19921;-72
2022/11/25 05:02:21;;;;;;;;;;;20.40;45.30;;;;;;5026858;28;19917;-72
2022/11/25 05:04:47;;;;;;;;;;;20.40;45.20;;;;;;5011677;28;20366;-71
2022/11/25 05:07:12;;;;;;;;;;;20.40;45.10;;;;;;5025521;28;19913;-71
2022/11/25 05:09:38;;;;;;;;;;;20.40;45.10;;;;;;5044806;28;20019;-72
2022/11/25 05:12:04;;;;;;;;;;;20.40;45.10;;;;;;5028725;28;20289;-71
2022/11/25 05:14:29;;;;;;;;;;;20.40;45.10;;;;;;5023143;28;20012;-70
2022/11/25 05:16:55;;;;;;;;;;;20.40;45.00;;;;;;5045580;28;19917;-72
2022/11/25 05:19:21;;;;;;;;;;;20.40;45.00;;;;;;5041534;28;19919;-72
2022/11/25 05:21:46;;;;;;;;;;;20.40;45.00;;;;;;5045638;28;19913;-71
2022/11/25 05:24:12;;;;;;;;;;;20.40;45.10;;;;;;5027192;28;19921;-72
2022/11/25 05:26:37;;;;;;;;;;;20.40;45.10;;;;;;5045423;28;19956;-71
2022/11/25 05:29:02;;;;;;;;;;;20.30;45.10;;;;;;5044439;28;19913;-71
2022/11/25 05:31:28;;;;;;;;;;;20.30;45.10;;;;;;5042566;28;19913;-71
2022/11/25 05:33:53;;;;;;;;;;;20.30;45.10;;;;;;5040498;28;19980;-72
2022/11/25 05:36:19;;;;;;;;;;;20.30;45.10;;;;;;5045156;28;19917;-71
2022/11/25 05:38:44;;;;;;;;;;;20.30;45.10;;;;;;5042661;28;20480;-72
2022/11/25 05:41:10;;;;;;;;;;;20.30;45.10;;;;;;5045407;28;19912;-72
2022/11/25 05:43:35;;;;;;;;;;;20.30;45.10;;;;;;5027853;28;19925;-72
2022/11/25 05:46:07;;;;;;;;;;;20.30;45.10;;;;;;5031906;28;19967;-72
2022/11/25 05:48:32;;;;;;;;;;;20.30;45.10;;;;;;5031533;28;19913;-72
2022/11/25 05:50:59;;;;;;;;;;;20.30;45.10;;;;;;5045825;28;20004;-72
2022/11/25 05:53:24;;;;;;;;;;;20.30;45.00;;;;;;5048366;28;19959;-71
2022/11/25 05:55:55;;;;;;;;;;;20.30;45.00;;;;;;5042016;28;19920;-71
2022/11/25 05:58:20;;;;;;;;;;;20.30;45.00;;;;;;5029849;28;19913;-72
2022/11/25 06:00:45;;;;;;;;;;;20.30;44.90;;;;;;5047629;28;20003;-73
2022/11/25 06:03:11;;;;;;;;;;;20.30;44.80;;;;;;5047079;28;19948;-72
2022/11/25 06:05:37;;;;;;;;;;;20.30;44.70;;;;;;5041730;28;19920;-72
2022/11/25 06:08:02;;;;;;;;;;;20.30;44.70;;;;;;5047129;28;19917;-71
2022/11/25 06:10:28;;;;;;;;;;;20.40;44.70;;;;;;5046920;28;19912;-72
2022/11/25 06:12:53;;;;;;;;;;;20.40;44.70;;;;;;5045220;28;19979;-73
2022/11/25 06:15:19;;;;;;;;;;;20.40;44.70;;;;;;5043245;28;19917;-72
2022/11/25 06:17:44;;;;;;;;;;;20.40;44.70;;;;;;5028749;28;19919;-72
2022/11/25 06:20:10;;;;;;;;;;;20.40;44.70;;;;;;5031703;28;19919;-72
2022/11/25 06:22:35;;;;;;;;;;;20.30;44.70;;;;;;5014988;28;19967;-72
2022/11/25 06:25:00;;;;;;;;;;;20.30;44.70;;;;;;5028375;28;19921;-72
2022/11/25 06:27:26;;;;;;;;;;;20.40;44.70;;;;;;5014133;28;20244;-72
2022/11/25 06:29:51;;;;;;;;;;;20.40;44.70;;;;;;5033130;28;19913;-71
2022/11/25 06:32:17;;;;;;;;;;;20.30;44.70;;;;;;5025246;28;19913;-71
2022/11/25 06:34:42;;;;;;;;;;;20.30;44.70;;;;;;5045632;28;19921;-71
2022/11/25 06:37:08;;;;;;;;;;;20.30;44.70;;;;;;5030925;28;20011;-71
2022/11/25 06:39:33;;;;;;;;;;;20.30;44.70;;;;;;5046047;28;19916;-73
2022/11/25 06:41:59;;;;;;;;;;;20.30;44.70;;;;;;5042585;28;20387;-71
2022/11/25 06:44:24;;;;;;;;;;;20.30;44.70;;;;;;5028528;28;19996;-72
2022/11/25 06:46:49;;;;;;;;;;;20.30;44.70;;;;;;5047300;28;19913;-72
2022/11/25 06:49:15;;;;;;;;;;;20.30;44.70;;;;;;5045545;28;19920;-72
2022/11/25 06:51:40;;;;;;;;;;;20.30;44.70;;;;;;5024222;28;19913;-73
2022/11/25 06:54:07;;;;;;;;;;;20.30;44.70;;;;;;5031018;28;20042;-71
2022/11/25 06:56:32;;;;;;;;;;;20.30;44.70;;;;;;5047640;28;19917;-72
2022/11/25 06:58:58;;;;;;;;;;;20.30;44.70;;;;;;5029962;28;20383;-72
2022/11/25 07:01:27;;;;;;;;;;;20.30;44.70;;;;;;5025998;28;19917;-72
2022/11/25 07:03:57;;;;;;;;;;;20.30;44.70;;;;;;5045763;28;19917;-71
2022/11/25 07:06:22;;;;;;;;;;;20.30;44.70;;;;;;5015705;28;20018;-72
2022/11/25 07:08:48;;;;;;;;;;;20.30;44.70;;;;;;5026711;28;20400;-72
2022/11/25 07:11:17;;;;;;;;;;;20.30;44.70;;;;;;5029937;28;20348;-71
2022/11/25 07:13:43;;;;;;;;;;;20.30;44.70;;;;;;5030396;28;19914;-72
2022/11/25 07:16:09;;;;;;;;;;;20.30;44.70;;;;;;5012879;28;19923;-71
2022/11/25 07:18:36;;;;;;;;;;;20.30;44.70;;;;;;5029361;28;19924;-72
2022/11/25 07:21:03;;;;;;;;;;;20.30;44.70;;;;;;5032430;28;19919;-71
2022/11/25 07:23:28;;;;;;;;;;;20.30;44.70;;;;;;5030456;28;19924;-72
2022/11/25 07:25:54;;;;;;;;;;;20.30;44.70;;;;;;5026950;28;19917;-72
2022/11/25 07:28:19;;;;;;;;;;;20.30;44.70;;;;;;5026078;28;20465;-71
2022/11/25 07:30:45;;;;;;;;;;;20.30;44.70;;;;;;5044857;28;19939;-72
2022/11/25 07:33:10;;;;;;;;;;;20.30;44.70;;;;;;5013757;28;19985;-71
2022/11/25 07:35:36;;;;;;;;;;;20.20;44.60;;;;;;5046189;28;20395;-71
2022/11/25 07:38:01;;;;;;;;;;;20.20;44.60;;;;;;5031627;28;19931;-71
2022/11/25 07:40:27;;;;;;;;;;;20.20;44.60;;;;;;5024284;28;20016;-72
2022/11/25 07:42:52;;;;;;;;;;;20.20;44.60;;;;;;5029458;28;19924;-72
2022/11/25 07:45:18;;;;;;;;;;;20.20;44.60;;;;;;5031278;28;19920;-72
2022/11/25 07:47:43;;;;;;;;;;;20.30;44.70;;;;;;5027384;28;20559;-72
2022/11/25 07:50:09;;;;;;;;;;;20.30;44.70;;;;;;5042264;28;20403;-72
2022/11/25 07:52:36;;;;;;;;;;;20.30;44.70;;;;;;5025143;28;19980;-73
2022/11/25 07:55:01;;;;;;;;;;;20.30;44.70;;;;;;5031517;28;19913;-72
2022/11/25 07:57:27;;;;;;;;;;;20.30;44.70;;;;;;5045185;28;19913;-72
2022/11/25 07:59:53;;;;;;;;;;;20.30;44.70;;;;;;5044459;28;19948;-72
2022/11/25 08:02:18;;;;;;;;;;;20.30;44.70;;;;;;5044102;28;20399;-73
2022/11/25 08:04:43;;;;;;;;;;;20.30;44.70;;;;;;5046111;28;19939;-73
2022/11/25 08:07:09;;;;;;;;;;;20.30;44.70;;;;;;5027046;28;20013;-73
2022/11/25 08:09:34;;;;;;;;;;;20.30;44.70;;;;;;5030221;28;20029;-72
2022/11/25 08:12:00;;;;;;;;;;;20.40;44.70;;;;;;5044549;28;19928;-73
2022/11/25 08:14:25;;;;;;;;;;;20.40;44.70;;;;;;5044002;28;20395;-72
2022/11/25 08:16:51;;;;;;;;;;;20.30;44.70;;;;;;5044664;28;20284;-72
2022/11/25 08:19:16;;;;;;;;;;;20.30;44.70;;;;;;5013663;28;19920;-73
2022/11/25 08:21:42;;;;;;;;;;;20.30;44.70;;;;;;5029860;28;19951;-74
2022/11/25 08:24:09;;;;;;;;;;;20.30;44.70;;;;;;5028194;28;19978;-72
2022/11/25 08:26:36;;;;;;;;;;;20.30;44.70;;;;;;5029388;28;20305;-71
2022/11/25 08:29:02;;;;;;;;;;;20.30;44.70;;;;;;5045942;28;19991;-72
2022/11/25 08:31:28;;;;;;;;;;;20.20;44.60;;;;;;5046808;28;20339;-73
2022/11/25 08:33:54;;;;;;;;;;;20.20;44.90;;;;;;5024742;28;20376;-73
2022/11/25 08:36:20;;;;;;;;;;;20.20;45.10;;;;;;5023039;28;19920;-73
2022/11/25 08:38:46;;;;;;;;;;;20.20;45.20;;;;;;5027247;28;19936;-72
2022/11/25 08:41:18;;;;;;;;;;;20.20;45.20;;;;;;5024504;28;20316;-72
2022/11/25 08:43:44;;;;;;;;;;;20.20;45.20;;;;;;5031373;28;19943;-73
2022/11/25 08:46:10;;;;;;;;;;;20.30;45.30;;;;;;5028992;28;19965;-71
2022/11/25 08:48:35;;;;;;;;;;;20.50;45.10;;;;;;5027649;28;19920;-73
2022/11/25 08:51:01;;;;;;;;;;;20.70;45.00;;;;;;5046332;28;20282;-74
2022/11/25 08:53:26;;;;;;;;;;;21.00;44.60;;;;;;5043204;28;19912;-72
2022/11/25 08:55:52;;;;;;;;;;;21.20;44.20;;;;;;5010561;28;20007;-73
2022/11/25 08:58:17;;;;;;;;;;;21.40;44.00;;;;;;5041933;28;19940;-72
2022/11/25 09:00:43;;;;;;;;;;;21.50;43.80;;;;;;5027033;28;19967;-72
2022/11/25 09:03:08;;;;;;;;;;;21.60;43.50;;;;;;5027705;28;20263;-73
2022/11/25 09:05:36;;;;;;;;;;;21.80;43.30;;;;;;5041640;28;19979;-72
2022/11/25 09:08:02;;;;;;;;;;;21.80;43.20;;;;;;5014321;28;19913;-72
2022/11/25 09:10:27;;;;;;;;;;;21.90;43.20;;;;;;5052093;28;19909;-73
2022/11/25 09:12:53;;;;;;;;;;;22.00;43.20;;;;;;5046247;28;19919;-72
2022/11/25 09:15:18;;;;;;;;;;;22.00;43.20;;;;;;5042209;28;19967;-73
2022/11/25 09:17:44;;;;;;;;;;;22.10;43.20;;;;;;5050443;28;20019;-72
2022/11/25 09:20:09;;;;;;;;;;;22.10;43.20;;;;;;5037854;28;19917;-72
2022/11/25 09:22:35;;;;;;;;;;;22.20;43.20;;;;;;5055799;28;19920;-72
2022/11/25 09:25:00;;;;;;;;;;;22.20;43.20;;;;;;5047583;28;19917;-73
2022/11/25 09:27:26;;;;;;;;;;;22.20;43.00;;;;;;5053283;28;19921;-73
2022/11/25 09:29:51;;;;;;;;;;;22.20;43.00;;;;;;5050858;28;19920;-73
2022/11/25 09:32:17;;;;;;;;;;;22.30;43.10;;;;;;5008010;28;20329;-73
2022/11/25 09:34:42;;;;;;;;;;;22.30;43.00;;;;;;5038638;28;19915;-73
2022/11/25 09:37:07;;;;;;;;;;;22.30;42.80;;;;;;5054349;28;19967;-74
2022/11/25 09:39:34;;;;;;;;;;;22.40;42.90;;;;;;5029694;28;19917;-73
2022/11/25 09:47:37;;;;;;;;;;;22.30;42.90;;;;;;5055279;28;19919;-74
2022/11/25 09:50:05;;;;;;;;;;;22.30;42.90;;;;;;5045754;28;20003;-74
2022/11/25 09:52:34;;;;;;;;;;;22.30;42.90;;;;;;5053427;28;20323;-73
2022/11/25 09:55:09;;;;;;;;;;;22.30;43.00;;;;;;5036003;28;20011;-74
2022/11/25 09:57:53;;;;;;;;;;;22.40;43.00;;;;;;5031663;28;19919;-74
2022/11/25 10:00:19;;;;;;;;;;;22.40;43.10;;;;;;5034135;28;19921;-74
2022/11/25 10:03:01;;;;;;;;;;;22.40;43.00;;;;;;5045215;28;19916;-73
2022/11/25 10:05:28;;;;;;;;;;;22.40;42.90;;;;;;5050048;28;19920;-74
2022/11/25 10:07:54;;;;;;;;;;;22.50;42.90;;;;;;5030634;28;19912;-74
2022/11/25 10:10:27;;;;;;;;;;;22.50;43.00;;;;;;5033902;28;19916;-73
2022/11/25 10:12:53;;;;;;;;;;;22.50;42.90;;;;;;5035920;28;19913;-73
2022/11/25 10:15:24;;;;;;;;;;;22.50;42.90;;;;;;5049628;28;20013;-73
2022/11/25 10:17:59;;;;;;;;;;;22.50;43.00;;;;;;5031514;28;19916;-72
2022/11/25 10:20:29;;;;;;;;;;;22.50;42.90;;;;;;5022735;28;19914;-73
2022/11/25 10:22:57;;;;;;;;;;;22.60;43.00;;;;;;5032543;28;19921;-73
2022/11/25 10:25:23;;;;;;;;;;;22.60;42.90;;;;;;5032111;28;19917;-73
2022/11/25 10:27:55;;;;;;;;;;;22.60;43.00;;;;;;5027942;28;19908;-73
2022/11/25 10:30:33;;;;;;;;;;;22.60;43.00;;;;;;5051573;28;19920;-73
2022/11/25 10:33:02;;;;;;;;;;;22.60;43.00;;;;;;5014851;28;19920;-73
2022/11/25 10:35:48;;;;;;;;;;;22.60;43.10;;;;;;5053404;28;19913;-75
2022/11/25 10:38:33;;;;;;;;;;;22.60;43.00;;;;;;5052801;28;19921;-74
2022/11/25 10:40:59;;;;;;;;;;;22.60;42.90;;;;;;5051739;28;20026;-75
2022/11/25 10:43:25;;;;;;;;;;;22.70;42.80;;;;;;5020720;28;19917;-74
2022/11/25 10:45:53;;;;;;;;;;;22.70;42.90;;;;;;5056337;28;19997;-74
2022/11/25 10:48:37;;;;;;;;;;;22.70;42.80;;;;;;5035321;28;19931;-74
2022/11/25 10:51:07;;;;;;;;;;;22.70;42.90;;;;;;5033141;28;20365;-74
2022/11/25 10:53:32;;;;;;;;;;;22.70;42.90;;;;;;5037572;28;19921;-74
2022/11/25 10:55:59;;;;;;;;;;;22.70;42.90;;;;;;5037100;28;19920;-74
2022/11/25 10:58:26;;;;;;;;;;;22.70;43.00;;;;;;5035240;28;19917;-73
2022/11/25 11:01:12;;;;;;;;;;;22.70;43.00;;;;;;5022470;28;21381;-74
2022/11/25 11:03:37;;;;;;;;;;;22.70;43.10;;;;;;5029549;28;19929;-74
2022/11/25 11:06:03;;;;;;;;;;;22.70;43.00;;;;;;5032998;28;19912;-76
2022/11/25 11:08:38;;;;;;;;;;;22.70;43.10;;;;;;5034808;28;19920;-76
2022/11/25 11:11:07;;;;;;;;;;;22.70;43.20;;;;;;5015009;28;19916;-75
2022/11/25 11:13:33;;;;;;;;;;;22.70;42.90;;;;;;5032944;28;20377;-74
2022/11/25 11:15:59;;;;;;;;;;;22.70;42.50;;;;;;5031223;28;19916;-74
2022/11/25 11:18:36;;;;;;;;;;;22.70;42.40;;;;;;5033138;28;19932;-74
2022/11/25 11:21:02;;;;;;;;;;;22.70;42.40;;;;;;5038466;28;19917;-75
2022/11/25 11:23:27;;;;;;;;;;;22.80;42.80;;;;;;5030441;28;19947;-73
2022/11/25 11:25:53;;;;;;;;;;;22.80;42.70;;;;;;5049610;28;19934;-74
2022/11/25 11:28:31;;;;;;;;;;;22.80;42.90;;;;;;5033904;28;20388;-73
2022/11/25 11:31:03;;;;;;;;;;;22.80;42.90;;;;;;5060612;28;19913;-74
2022/11/25 11:33:33;;;;;;;;;;;22.80;42.80;;;;;;5050536;28;20430;-74
2022/11/25 11:36:01;;;;;;;;;;;22.90;42.90;;;;;;5045422;28;19927;-74
2022/11/25 11:38:30;;;;;;;;;;;22.90;42.90;;;;;;5045681;28;19929;-74
2022/11/25 11:40:59;;;;;;;;;;;22.80;42.90;;;;;;5027859;28;19913;-74
2022/11/25 11:43:28;;;;;;;;;;;22.80;42.90;;;;;;5029177;28;19921;-75
2022/11/25 11:46:23;;;;;;;;;;;22.80;43.00;;;;;;5029327;28;19913;-75
2022/11/25 11:48:59;;;;;;;;;;;22.80;42.90;;;;;;5034081;28;19912;-75
2022/11/25 11:51:28;;;;;;;;;;;22.90;43.00;;;;;;5050957;28;20030;-75
2022/11/25 11:53:58;;;;;;;;;;;22.90;43.10;;;;;;5033479;28;19913;-74
2022/11/25 11:56:27;;;;;;;;;;;22.90;43.10;;;;;;5029478;28;20376;-74
2022/11/25 11:58:56;;;;;;;;;;;22.90;42.90;;;;;;5051564;28;19913;-74
2022/11/25 12:01:40;;;;;;;;;;;22.90;43.00;;;;;;5032552;28;20288;-74
2022/11/25 12:04:13;;;;;;;;;;;22.90;43.00;;;;;;5049162;28;19993;-75
2022/11/25 12:06:39;;;;;;;;;;;23.00;43.00;;;;;;5047546;28;20063;-74
2022/11/25 12:09:09;;;;;;;;;;;22.90;42.90;;;;;;5050979;28;19991;-75
2022/11/25 12:11:36;;;;;;;;;;;23.00;43.10;;;;;;5028182;28;19920;-74
2022/11/25 12:14:12;;;;;;;;;;;23.00;43.00;;;;;;5029453;28;19936;-75
2022/11/25 12:16:37;;;;;;;;;;;23.00;43.20;;;;;;5032985;28;19913;-75
2022/11/25 12:19:21;;;;;;;;;;;23.00;43.10;;;;;;5050257;28;20406;-76
2022/11/25 12:22:04;;;;;;;;;;;23.00;43.20;;;;;;5050532;28;19913;-74
2022/11/25 12:24:38;;;;;;;;;;;23.00;43.20;;;;;;5046037;28;19920;-75
2022/11/25 12:27:07;;;;;;;;;;;22.90;43.00;;;;;;5046719;28;19959;-75
2022/11/25 12:29:48;;;;;;;;;;;22.90;43.10;;;;;;5030917;28;19917;-75
2022/11/25 12:32:29;;;;;;;;;;;22.90;43.00;;;;;;5047766;28;20003;-75
2022/11/25 12:34:55;;;;;;;;;;;22.90;43.10;;;;;;5048002;28;19917;-77
2022/11/25 12:37:47;;;;;;;;;;;22.90;43.20;;;;;;5027175;28;20011;-75
2022/11/25 12:40:14;;;;;;;;;;;22.90;43.20;;;;;;5011187;28;19920;-76
2022/11/25 12:42:39;;;;;;;;;;;22.90;43.20;;;;;;5037250;28;19920;-75
2022/11/25 12:45:14;;;;;;;;;;;22.80;43.00;;;;;;5030306;28;19916;-75
2022/11/25 12:47:40;;;;;;;;;;;22.90;43.20;;;;;;5049013;28;19995;-74
2022/11/25 12:50:06;;;;;;;;;;;22.90;43.20;;;;;;5048053;28;19959;-78
2022/11/25 12:52:35;;;;;;;;;;;22.90;43.30;;;;;;5019158;28;19918;-73
2022/11/25 12:55:16;;;;;;;;;;;22.90;43.30;;;;;;5030422;28;19924;-74
2022/11/25 12:57:42;;;;;;;;;;;22.90;43.40;;;;;;5036132;28;19912;-74
2022/11/25 13:00:17;;;;;;;;;;;22.80;43.30;;;;;;5054598;28;20349;-74
2022/11/25 13:02:46;;;;;;;;;;;22.80;43.30;;;;;;5032949;28;20557;-74
2022/11/25 13:05:30;;;;;;;;;;;22.80;43.20;;;;;;5037572;28;19923;-73
2022/11/25 13:08:22;;;;;;;;;;;22.90;43.20;;;;;;5048595;28;19928;-76
2022/11/25 13:10:53;;;;;;;;;;;22.90;43.30;;;;;;5047917;28;19917;-75
2022/11/25 13:13:37;;;;;;;;;;;22.80;43.20;;;;;;5053503;28;19917;-76
2022/11/25 13:16:04;;;;;;;;;;;22.80;43.30;;;;;;5040560;28;20397;-73
2022/11/25 13:18:29;;;;;;;;;;;22.90;43.40;;;;;;5052491;28;19978;-74
2022/11/25 13:20:55;;;;;;;;;;;22.80;43.30;;;;;;5034896;28;19951;-76
2022/11/25 13:23:25;;;;;;;;;;;22.80;43.30;;;;;;5035539;28;19925;-74
2022/11/25 13:26:10;;;;;;;;;;;22.80;43.30;;;;;;5033488;28;19975;-75
2022/11/25 13:28:36;;;;;;;;;;;22.80;43.40;;;;;;5054518;28;20003;-74
2022/11/25 13:31:18;;;;;;;;;;;22.90;43.50;;;;;;5053855;28;19960;-74
2022/11/25 13:33:44;;;;;;;;;;;22.90;43.40;;;;;;5029904;28;19920;-74
2022/11/25 13:36:19;;;;;;;;;;;22.80;43.20;;;;;;5052251;28;19924;-76
2022/11/25 13:38:47;;;;;;;;;;;22.80;43.10;;;;;;5025582;28;20528;-76
2022/11/25 13:41:19;;;;;;;;;;;22.90;43.10;;;;;;5053196;28;19931;-74
2022/11/25 13:43:53;;;;;;;;;;;22.90;42.90;;;;;;5042532;28;19921;-73
2022/11/25 13:46:32;;;;;;;;;;;22.80;42.90;;;;;;5035637;28;19920;-75
2022/11/25 13:48:58;;;;;;;;;;;22.90;43.10;;;;;;5048113;28;20307;-73
2022/11/25 13:51:23;;;;;;;;;;;22.90;43.10;;;;;;5035783;28;20015;-75
2022/11/25 13:53:50;;;;;;;;;;;22.80;43.20;;;;;;5050337;28;19923;-74
2022/11/25 13:56:32;;;;;;;;;;;22.80;43.30;;;;;;5053207;28;20314;-74
2022/11/25 13:59:09;;;;;;;;;;;22.80;43.30;;;;;;5031426;28;19967;-74
2022/11/25 14:01:35;;;;;;;;;;;22.90;43.50;;;;;;5051890;28;19917;-75
2022/11/25 14:04:03;;;;;;;;;;;22.90;43.50;;;;;;5030344;28;19928;-74
2022/11/25 14:06:34;;;;;;;;;;;23.00;43.40;;;;;;5012950;28;20369;-74
2022/11/25 14:09:04;;;;;;;;;;;23.00;43.50;;;;;;5048338;28;19917;-73
2022/11/25 14:11:48;;;;;;;;;;;23.00;43.40;;;;;;5042059;28;20015;-74
2022/11/25 14:14:13;;;;;;;;;;;23.10;43.40;;;;;;5049306;28;20035;-73
2022/11/25 14:16:42;;;;;;;;;;;23.10;43.50;;;;;;5050416;28;19952;-73
2022/11/25 14:19:26;;;;;;;;;;;23.10;43.40;;;;;;5048097;28;19919;-72
2022/11/25 14:22:11;;;;;;;;;;;23.20;44.10;;;;;;5052418;28;20373;-71
2022/11/25 14:24:48;;;;;;;;;;;23.10;43.50;;;;;;5046590;28;20296;-72
2022/11/25 14:27:14;;;;;;;;;;;23.20;43.70;;;;;;5033844;28;19988;-73
2022/11/25 14:29:41;;;;;;;;;;;23.20;43.80;;;;;;5033919;28;19916;-74
2022/11/25 14:32:08;;;;;;;;;;;23.20;43.80;;;;;;5011454;28;19928;-73